createdAt,value
2023-06-14T00:00:42.404Z,47.94
2023-06-14T00:03:11.264Z,48.08
2023-06-14T00:05:44.228Z,48.31
2023-06-14T00:08:11.730Z,48.71
2023-06-14T00:10:44.404Z,48.75
2023-06-14T00:13:11.343Z,48.63
2023-06-14T00:15:38.261Z,48.85
2023-06-14T00:18:06.240Z,48.76
2023-06-14T00:20:34.507Z,48.88
2023-06-14T00:23:03.349Z,48.95
2023-06-14T00:25:30.550Z,49.60
2023-06-14T00:27:58.554Z,49.14
2023-06-14T00:30:26.883Z,49.31
2023-06-14T00:32:53.827Z,49.30
2023-06-14T00:35:21.910Z,49.55
2023-06-14T00:37:52.206Z,49.50
2023-06-14T00:40:19.183Z,49.68
2023-06-14T00:42:46.274Z,49.48
2023-06-14T00:45:13.432Z,49.63
2023-06-14T00:47:44.170Z,49.53
2023-06-14T00:50:11.554Z,49.38
2023-06-14T00:52:39.193Z,49.25
2023-06-14T00:55:14.523Z,49.00
2023-06-14T00:57:43.963Z,48.99
2023-06-14T01:00:11.342Z,48.82
2023-06-14T01:02:39.245Z,49.02
2023-06-14T01:05:08.163Z,49.16
2023-06-14T01:08:06.600Z,49.47
2023-06-14T01:10:56.678Z,49.94
2023-06-14T01:13:39.053Z,49.58
2023-06-14T01:16:07.881Z,49.57
2023-06-14T01:18:35.958Z,49.70
2023-06-14T01:21:06.716Z,49.99
2023-06-14T01:23:34.214Z,49.78
2023-06-14T01:26:05.996Z,49.65
2023-06-14T01:28:35.044Z,49.86
2023-06-14T01:31:07.530Z,49.90
2023-06-14T01:33:36.121Z,49.38
2023-06-14T01:36:04.728Z,49.81
2023-06-14T01:38:32.017Z,49.34
2023-06-14T01:41:00.777Z,49.22
2023-06-14T01:43:28.559Z,49.36
2023-06-14T01:45:56.670Z,49.65
2023-06-14T01:48:23.297Z,49.96
2023-06-14T01:50:51.081Z,49.87
2023-06-14T01:53:17.717Z,50.08
2023-06-14T01:55:45.889Z,50.37
2023-06-14T01:58:12.746Z,50.42
2023-06-14T02:00:39.273Z,50.62
2023-06-14T02:03:05.994Z,50.67
2023-06-14T02:05:32.668Z,51.04
2023-06-14T02:07:59.417Z,51.42
2023-06-14T02:10:26.236Z,51.61
2023-06-14T02:12:52.673Z,51.57
2023-06-14T02:15:22.940Z,52.05
2023-06-14T02:17:50.846Z,52.50
2023-06-14T02:20:18.061Z,52.58
2023-06-14T02:22:46.026Z,52.66
2023-06-14T02:25:12.871Z,53.16
2023-06-14T02:27:39.627Z,53.30
2023-06-14T02:30:06.963Z,53.59
2023-06-14T02:32:37.547Z,53.94
2023-06-14T02:35:04.934Z,53.97
2023-06-14T02:37:31.538Z,54.11
2023-06-14T02:39:58.094Z,54.40
2023-06-14T02:42:24.825Z,54.54
2023-06-14T02:44:52.389Z,54.70
2023-06-14T02:47:19.948Z,55.29
2023-06-14T02:49:50.020Z,55.31
2023-06-14T02:52:17.219Z,54.95
2023-06-14T02:54:44.523Z,55.11
2023-06-14T02:57:11.974Z,55.20
2023-06-14T02:59:39.005Z,55.37
2023-06-14T03:02:06.347Z,55.76
2023-06-14T03:04:38.741Z,55.71
2023-06-14T03:07:10.412Z,55.94
2023-06-14T03:09:38.705Z,56.25
2023-06-14T03:12:08.558Z,56.05
2023-06-14T03:14:36.169Z,56.54
2023-06-14T03:17:06.365Z,56.78
2023-06-14T03:19:33.244Z,57.23
2023-06-14T03:22:00.821Z,57.15
2023-06-14T03:24:30.415Z,56.89
2023-06-14T03:26:58.076Z,57.01
2023-06-14T03:29:25.020Z,56.47
2023-06-14T03:32:00.241Z,56.60
2023-06-14T03:34:28.574Z,56.41
2023-06-14T03:37:02.107Z,56.54
2023-06-14T03:39:28.588Z,56.21
2023-06-14T03:41:55.106Z,56.78
2023-06-14T03:44:21.982Z,57.01
2023-06-14T03:46:49.528Z,57.22
2023-06-14T03:49:18.257Z,57.78
2023-06-14T03:51:44.745Z,57.15
2023-06-14T03:54:56.360Z,57.73
2023-06-14T03:56:58.293Z,57.66
2023-06-14T03:59:25.108Z,57.79
2023-06-14T04:01:51.807Z,58.41
2023-06-14T04:04:19.897Z,58.54
2023-06-14T04:06:49.333Z,58.72
2023-06-14T04:09:16.032Z,58.87
2023-06-14T04:11:42.615Z,58.59
2023-06-14T04:14:09.304Z,58.53
2023-06-14T04:16:36.186Z,58.48
2023-06-14T04:19:04.190Z,59.12
2023-06-14T04:21:31.155Z,58.37
2023-06-14T04:23:57.802Z,58.25
2023-06-14T04:26:31.222Z,58.93
2023-06-14T04:29:04.426Z,59.28
2023-06-14T04:31:35.092Z,59.14
2023-06-14T04:34:01.912Z,59.49
2023-06-14T04:36:29.226Z,59.91
2023-06-14T04:39:04.587Z,59.68
2023-06-14T04:41:31.905Z,58.45
2023-06-14T04:44:02.844Z,58.87
2023-06-14T04:46:30.039Z,59.87
2023-06-14T04:49:00.087Z,58.88
2023-06-14T04:51:30.687Z,59.52
2023-06-14T04:54:01.052Z,59.71
2023-06-14T04:56:28.943Z,58.75
2023-06-14T04:58:57.778Z,59.50
2023-06-14T05:01:24.458Z,59.57
2023-06-14T05:03:52.200Z,58.25
2023-06-14T05:06:21.506Z,58.31
2023-06-14T05:08:48.164Z,58.14
2023-06-14T05:11:15.005Z,58.20
2023-06-14T05:13:42.936Z,58.43
2023-06-14T05:16:09.627Z,58.74
2023-06-14T05:18:36.656Z,58.93
2023-06-14T05:21:05.954Z,60.19
2023-06-14T05:23:32.934Z,59.21
2023-06-14T05:25:59.490Z,59.69
2023-06-14T05:28:27.116Z,60.41
2023-06-14T05:30:53.839Z,59.72
2023-06-14T05:33:21.202Z,59.63
2023-06-14T05:35:48.423Z,58.58
2023-06-14T05:38:15.162Z,59.45
2023-06-14T05:40:46.184Z,61.33
2023-06-14T05:43:12.912Z,59.46
2023-06-14T05:45:39.530Z,59.14
2023-06-14T05:48:06.321Z,58.44
2023-06-14T05:50:33.183Z,59.22
2023-06-14T05:53:07.219Z,57.58
2023-06-14T05:55:33.921Z,57.54
2023-06-14T05:58:00.654Z,57.48
2023-06-14T06:00:29.327Z,56.58
2023-06-14T06:03:02.845Z,57.27
2023-06-14T06:05:30.473Z,57.18
2023-06-14T06:07:57.091Z,56.44
2023-06-14T06:10:24.495Z,56.22
2023-06-14T06:12:53.128Z,55.61
2023-06-14T06:15:19.953Z,53.62
2023-06-14T06:17:55.644Z,51.96
2023-06-14T06:20:28.804Z,50.48
2023-06-14T06:22:57.023Z,48.71
2023-06-14T06:25:27.016Z,47.37
2023-06-14T06:27:54.931Z,47.31
2023-06-14T06:30:22.207Z,46.04
2023-06-14T06:32:50.061Z,45.67
2023-06-14T06:35:17.493Z,45.25
2023-06-14T06:37:44.947Z,45.45
2023-06-14T06:40:11.826Z,48.70
2023-06-14T06:42:38.491Z,44.06
2023-06-14T06:45:05.839Z,43.21
2023-06-14T06:47:33.053Z,43.39
2023-06-14T06:50:06.792Z,43.28
2023-06-14T06:52:38.209Z,42.78
2023-06-14T06:55:05.483Z,42.52
2023-06-14T06:57:32.019Z,42.38
2023-06-14T06:59:58.527Z,44.03
2023-06-14T07:02:26.556Z,41.51
2023-06-14T07:04:53.150Z,41.91
2023-06-14T07:07:20.511Z,42.25
2023-06-14T07:09:49.646Z,42.49
2023-06-14T07:12:17.335Z,44.03
2023-06-14T07:14:43.957Z,40.42
2023-06-14T07:17:10.844Z,40.49
2023-06-14T07:19:38.261Z,42.26
2023-06-14T07:22:05.162Z,40.75
2023-06-14T07:24:36.653Z,39.81
2023-06-14T07:27:05.222Z,38.99
2023-06-14T07:29:32.249Z,39.65
2023-06-14T07:31:59.177Z,40.51
2023-06-14T07:34:27.169Z,39.21
2023-06-14T07:36:55.482Z,42.00
2023-06-14T07:39:23.322Z,39.63
2023-06-14T07:41:50.258Z,39.25
2023-06-14T07:44:19.481Z,38.70
2023-06-14T07:46:47.210Z,39.81
2023-06-14T07:49:14.880Z,37.58
2023-06-14T07:51:42.012Z,39.74
2023-06-14T07:54:10.612Z,39.49
2023-06-14T07:56:38.177Z,38.14
2023-06-14T07:59:05.239Z,39.36
2023-06-14T08:01:31.978Z,38.87
2023-06-14T08:03:59.244Z,38.50
2023-06-14T08:06:26.532Z,37.91
2023-06-14T08:08:53.461Z,37.53
2023-06-14T08:11:21.070Z,37.85
2023-06-14T08:13:47.609Z,37.90
2023-06-14T08:16:14.163Z,38.18
2023-06-14T08:18:42.309Z,38.31
2023-06-14T08:21:10.585Z,41.09
2023-06-14T08:23:37.236Z,39.94
2023-06-14T08:26:06.357Z,40.47
2023-06-14T08:28:32.900Z,38.90
2023-06-14T08:30:59.392Z,39.54
2023-06-14T08:33:26.295Z,40.08
2023-06-14T08:35:52.927Z,37.72
2023-06-14T08:38:21.476Z,38.66
2023-06-14T08:40:52.927Z,38.46
2023-06-14T08:43:20.168Z,39.72
2023-06-14T08:45:49.763Z,39.49
2023-06-14T08:48:18.759Z,40.42
2023-06-14T08:50:48.228Z,40.08
2023-06-14T08:53:17.963Z,40.62
2023-06-14T08:55:45.116Z,38.58
2023-06-14T08:58:16.349Z,38.00
2023-06-14T09:00:44.216Z,39.07
2023-06-14T09:03:15.419Z,38.02
2023-06-14T09:05:42.098Z,39.09
2023-06-14T09:08:10.230Z,40.24
2023-06-14T09:10:39.331Z,39.53
2023-06-14T09:13:06.763Z,39.81
2023-06-14T09:15:34.009Z,39.78
2023-06-14T09:18:03.638Z,38.58
2023-06-14T09:20:31.970Z,39.15
2023-06-14T09:22:59.061Z,39.55
2023-06-14T09:25:38.672Z,40.33
2023-06-14T09:28:08.165Z,39.95
2023-06-14T09:30:35.005Z,38.80
2023-06-14T09:33:02.349Z,38.95
2023-06-14T09:35:32.244Z,39.93
2023-06-14T09:37:59.059Z,39.74
2023-06-14T09:40:25.895Z,40.27
2023-06-14T09:42:54.778Z,40.01
2023-06-14T09:45:23.112Z,38.77
2023-06-14T09:48:06.136Z,38.38
2023-06-14T09:50:34.228Z,38.61
2023-06-14T09:53:07.558Z,38.08
2023-06-14T09:55:37.778Z,38.25
2023-06-14T09:58:09.223Z,37.48
2023-06-14T10:00:38.325Z,37.37
2023-06-14T10:03:12.726Z,36.82
2023-06-14T10:05:44.940Z,37.15
2023-06-14T10:08:17.657Z,37.42
2023-06-14T10:10:44.525Z,37.52
2023-06-14T10:13:12.697Z,37.54
2023-06-14T10:16:10.564Z,38.07
2023-06-14T10:18:42.133Z,38.03
2023-06-14T10:21:32.768Z,38.57
2023-06-14T10:24:04.839Z,38.24
2023-06-14T10:26:31.584Z,37.99
2023-06-14T10:29:09.053Z,39.09
2023-06-14T10:31:50.075Z,38.47
2023-06-14T10:34:26.674Z,38.99
2023-06-14T10:37:11.847Z,39.62
2023-06-14T10:39:49.178Z,39.62
2023-06-14T10:42:16.083Z,38.19
2023-06-14T10:44:47.797Z,38.02
2023-06-14T10:47:28.081Z,38.03
2023-06-14T10:49:56.230Z,37.85
2023-06-14T10:52:25.995Z,37.94
2023-06-14T10:55:02.839Z,38.33
2023-06-14T10:57:29.461Z,39.18
2023-06-14T10:59:56.826Z,38.05
2023-06-14T11:02:23.799Z,39.20
2023-06-14T11:04:53.201Z,40.09
2023-06-14T11:07:53.982Z,38.99
2023-06-14T11:10:43.120Z,38.35
2023-06-14T11:13:10.264Z,37.47
2023-06-14T11:15:38.881Z,36.63
2023-06-14T11:18:08.026Z,36.46
2023-06-14T11:20:36.593Z,35.61
2023-06-14T11:23:05.280Z,35.95
2023-06-14T11:25:31.859Z,36.35
2023-06-14T11:28:00.988Z,36.67
2023-06-14T11:30:28.057Z,36.13
2023-06-14T11:32:59.097Z,35.67
2023-06-14T11:35:29.165Z,36.12
2023-06-14T11:37:57.908Z,36.48
2023-06-14T11:40:29.152Z,36.82
2023-06-14T11:43:04.574Z,35.90
2023-06-14T11:45:32.828Z,35.46
2023-06-14T11:48:01.592Z,34.85
2023-06-14T11:50:29.995Z,34.66
2023-06-14T11:52:58.182Z,33.50
2023-06-14T11:55:25.561Z,33.57
2023-06-14T11:57:56.724Z,32.21
2023-06-14T12:00:27.008Z,33.11
2023-06-14T12:02:57.443Z,33.01
2023-06-14T12:05:25.059Z,33.77
2023-06-14T12:07:54.612Z,34.39
2023-06-14T12:10:21.299Z,34.42
2023-06-14T12:12:47.801Z,35.69
2023-06-14T12:15:15.520Z,35.17
2023-06-14T12:17:44.591Z,34.76
2023-06-14T12:20:15.420Z,34.68
2023-06-14T12:22:59.292Z,35.53
2023-06-14T12:25:35.422Z,35.19
2023-06-14T12:28:06.481Z,34.44
2023-06-14T12:30:33.630Z,34.58
2023-06-14T12:33:01.445Z,35.63
2023-06-14T12:35:29.499Z,34.01
2023-06-14T12:37:56.375Z,34.44
2023-06-14T12:40:23.211Z,32.85
2023-06-14T12:42:50.010Z,33.34
2023-06-14T12:45:16.928Z,32.48
2023-06-14T12:47:43.745Z,32.82
2023-06-14T12:52:39.695Z,33.54
2023-06-14T12:55:08.041Z,33.03
2023-06-14T12:57:37.737Z,33.18
2023-06-14T13:00:06.203Z,32.54
2023-06-14T13:02:33.310Z,32.37
2023-06-14T13:05:00.310Z,31.95
2023-06-14T13:07:29.556Z,32.13
2023-06-14T13:09:56.406Z,32.30
2023-06-14T13:12:23.329Z,32.45
2023-06-14T13:14:49.857Z,32.65
2023-06-14T13:17:17.340Z,33.29
2023-06-14T13:19:43.903Z,33.33
2023-06-14T13:22:10.807Z,34.70
2023-06-14T13:24:39.110Z,34.67
2023-06-14T13:27:07.127Z,34.34
2023-06-14T13:29:34.643Z,34.06
2023-06-14T13:34:28.901Z,32.89
2023-06-14T13:36:55.708Z,32.35
2023-06-14T13:39:23.071Z,31.45
2023-06-14T13:41:50.108Z,31.92
2023-06-14T13:44:22.161Z,31.48
2023-06-14T13:46:48.755Z,32.58
2023-06-14T13:49:15.438Z,32.25
2023-06-14T13:51:41.993Z,32.01
2023-06-14T13:54:08.903Z,32.37
2023-06-14T13:56:36.157Z,33.04
2023-06-14T13:59:03.796Z,33.30
2023-06-14T14:01:31.801Z,32.91
2023-06-14T14:04:01.839Z,34.19
2023-06-14T14:06:28.573Z,34.44
2023-06-14T14:08:55.359Z,35.60
2023-06-14T14:11:23.555Z,34.66
2023-06-14T14:13:50.135Z,34.18
2023-06-14T14:16:17.032Z,34.49
2023-06-14T14:18:43.726Z,34.35
2023-06-14T14:21:11.337Z,33.83
2023-06-14T14:23:39.271Z,33.43
2023-06-14T14:26:08.828Z,32.10
2023-06-14T14:28:35.589Z,31.82
2023-06-14T14:31:02.738Z,31.40
2023-06-14T14:33:30.362Z,31.36
2023-06-14T14:35:56.957Z,31.05
2023-06-14T14:38:25.853Z,32.04
2023-06-14T14:40:52.536Z,33.45
2023-06-14T14:43:19.311Z,34.31
2023-06-14T14:45:45.793Z,35.41
2023-06-14T14:48:14.197Z,34.90
2023-06-14T14:50:41.864Z,34.46
2023-06-14T14:53:08.541Z,34.89
2023-06-14T14:55:38.254Z,34.65
2023-06-14T14:58:04.914Z,34.94
2023-06-14T15:00:31.425Z,33.02
2023-06-14T15:02:58.139Z,32.74
2023-06-14T15:05:25.551Z,32.74
2023-06-14T15:07:52.002Z,33.05
2023-06-14T15:10:19.403Z,32.39
2023-06-14T15:12:46.292Z,33.15
2023-06-14T15:15:14.114Z,32.45
2023-06-14T15:17:41.848Z,33.48
2023-06-14T15:20:09.039Z,33.85
2023-06-14T15:22:37.098Z,33.56
2023-06-14T15:25:04.943Z,33.41
2023-06-14T15:27:31.566Z,33.57
2023-06-14T15:29:58.314Z,31.25
2023-06-14T15:32:25.179Z,30.75
2023-06-14T15:34:54.040Z,30.60
2023-06-14T15:37:20.617Z,32.87
2023-06-14T15:39:47.362Z,33.46
2023-06-14T15:42:14.009Z,33.42
2023-06-14T15:44:42.038Z,33.67
2023-06-14T15:47:14.532Z,34.33
2023-06-14T15:49:41.441Z,33.87
2023-06-14T15:52:09.889Z,33.82
2023-06-14T15:54:36.401Z,34.70
2023-06-14T15:57:03.965Z,33.03
2023-06-14T15:59:30.664Z,32.31
2023-06-14T16:01:58.125Z,32.86
2023-06-14T16:04:24.719Z,33.89
2023-06-14T16:06:51.451Z,32.68
2023-06-14T16:09:18.087Z,32.64
2023-06-14T16:11:44.610Z,32.57
2023-06-14T16:14:11.632Z,32.73
2023-06-14T16:16:38.263Z,33.70
2023-06-14T16:19:06.021Z,33.56
2023-06-14T16:21:37.554Z,33.56
2023-06-14T16:24:06.118Z,33.68
2023-06-14T16:26:32.754Z,33.34
2023-06-14T16:28:59.236Z,32.85
2023-06-14T16:31:26.547Z,33.76
2023-06-14T16:33:56.579Z,32.66
2023-06-14T16:36:24.434Z,33.92
2023-06-14T16:38:52.049Z,34.02
2023-06-14T16:41:18.781Z,33.06
2023-06-14T16:43:45.498Z,32.88
2023-06-14T16:46:14.250Z,32.70
2023-06-14T16:48:41.031Z,33.30
2023-06-14T16:51:07.881Z,33.40
2023-06-14T16:53:34.543Z,32.42
2023-06-14T16:56:01.156Z,32.67
2023-06-14T16:58:28.222Z,33.27
2023-06-14T17:00:57.072Z,33.89
2023-06-14T17:03:23.753Z,33.57
2023-06-14T17:06:05.693Z,34.08
2023-06-14T17:08:32.307Z,34.03
2023-06-14T17:11:00.689Z,35.40
2023-06-14T17:13:28.102Z,35.03
2023-06-14T17:15:55.239Z,35.02
2023-06-14T17:18:24.813Z,34.46
2023-06-14T17:20:52.915Z,34.92
2023-06-14T17:23:21.680Z,34.27
2023-06-14T17:25:48.979Z,34.76
2023-06-14T17:28:16.090Z,34.26
2023-06-14T17:30:47.231Z,33.59
2023-06-14T17:33:15.732Z,34.05
2023-06-14T17:35:44.041Z,33.55
2023-06-14T17:38:12.554Z,34.37
2023-06-14T17:40:48.969Z,33.97
2023-06-14T17:43:17.377Z,33.92
2023-06-14T17:45:44.540Z,34.55
2023-06-14T17:48:11.597Z,33.99
2023-06-14T17:50:40.516Z,33.09
2023-06-14T17:53:08.952Z,33.56
2023-06-14T17:55:36.023Z,33.90
2023-06-14T17:58:05.824Z,33.90
2023-06-14T18:00:32.364Z,34.43
2023-06-14T18:03:00.499Z,33.99
2023-06-14T18:05:27.632Z,34.35
2023-06-14T18:07:55.880Z,34.62
2023-06-14T18:10:23.199Z,34.55
2023-06-14T18:12:49.787Z,35.10
2023-06-14T18:15:16.750Z,35.10
2023-06-14T18:17:44.241Z,35.51
2023-06-14T18:20:11.074Z,35.45
2023-06-14T18:22:39.317Z,35.75
2023-06-14T18:25:06.372Z,35.69
2023-06-14T18:27:33.082Z,35.72
2023-06-14T18:29:59.904Z,35.13
2023-06-14T18:32:28.392Z,35.63
2023-06-14T18:34:54.923Z,35.56
2023-06-14T18:37:22.329Z,35.68
2023-06-14T18:39:49.398Z,35.95
2023-06-14T18:42:17.412Z,36.16
2023-06-14T18:44:43.919Z,36.18
2023-06-14T18:47:12.583Z,36.37
2023-06-14T18:49:41.849Z,36.48
2023-06-14T18:52:10.051Z,36.78
2023-06-14T18:54:36.678Z,36.99
2023-06-14T18:57:03.498Z,37.36
2023-06-14T18:59:30.773Z,37.41
2023-06-14T19:01:57.641Z,37.54
2023-06-14T19:04:24.947Z,37.99
2023-06-14T19:06:52.264Z,38.08
2023-06-14T19:09:22.372Z,38.38
2023-06-14T19:11:48.920Z,38.85
2023-06-14T19:14:16.157Z,38.89
2023-06-14T19:16:42.847Z,39.01
2023-06-14T19:19:09.470Z,39.46
2023-06-14T19:21:36.348Z,39.57
2023-06-14T19:24:04.267Z,39.63
2023-06-14T19:26:31.994Z,39.55
2023-06-14T19:28:58.666Z,39.81
2023-06-14T19:31:30.113Z,39.89
2023-06-14T19:33:57.614Z,39.78
2023-06-14T19:36:25.316Z,39.69
2023-06-14T19:38:52.120Z,39.74
2023-06-14T19:41:18.996Z,40.00
2023-06-14T19:43:46.147Z,40.53
2023-06-14T19:46:14.147Z,40.87
2023-06-14T19:48:41.841Z,40.72
2023-06-14T19:51:08.472Z,40.88
2023-06-14T19:53:35.264Z,41.30
2023-06-14T19:56:02.072Z,41.78
2023-06-14T19:58:29.070Z,42.19
2023-06-14T20:00:55.722Z,42.48
2023-06-14T20:03:22.181Z,42.66
2023-06-14T20:05:50.184Z,42.97
2023-06-14T20:08:23.343Z,43.28
2023-06-14T20:10:53.853Z,43.46
2023-06-14T20:13:20.571Z,43.90
2023-06-14T20:15:47.153Z,44.11
2023-06-14T20:18:14.662Z,44.54
2023-06-14T20:20:42.870Z,44.83
2023-06-14T20:23:10.150Z,45.05
2023-06-14T20:25:40.027Z,45.52
2023-06-14T20:28:06.752Z,45.76
2023-06-14T20:30:33.233Z,46.26
2023-06-14T20:33:00.023Z,46.64
2023-06-14T20:35:28.465Z,47.05
2023-06-14T20:37:55.564Z,47.19
2023-06-14T20:40:27.576Z,47.69
2023-06-14T20:42:58.596Z,47.64
2023-06-14T20:45:27.181Z,47.94
2023-06-14T20:47:56.402Z,48.48
2023-06-14T20:50:23.278Z,48.50
2023-06-14T20:52:51.249Z,48.73
2023-06-14T20:55:19.095Z,49.07
2023-06-14T20:57:48.318Z,49.46
2023-06-14T21:00:17.699Z,49.19
2023-06-14T21:02:44.472Z,49.38
2023-06-14T21:05:11.466Z,49.68
2023-06-14T21:07:38.150Z,49.80
2023-06-14T21:10:05.915Z,49.87
2023-06-14T21:12:35.581Z,49.83
2023-06-14T21:15:02.257Z,50.17
2023-06-14T21:17:29.445Z,50.11
2023-06-14T21:19:56.049Z,50.21
2023-06-14T21:22:22.864Z,50.51
2023-06-14T21:24:50.164Z,50.40
2023-06-14T21:27:16.921Z,50.43
2023-06-14T21:29:43.738Z,50.35
2023-06-14T21:32:11.747Z,50.56
2023-06-14T21:34:42.066Z,50.88
2023-06-14T21:37:10.440Z,50.76
2023-06-14T21:39:42.923Z,51.13
2023-06-14T21:42:10.295Z,51.19
2023-06-14T21:44:42.068Z,51.39
2023-06-14T21:47:09.669Z,51.93
2023-06-14T21:49:36.199Z,51.47
2023-06-14T21:52:05.248Z,51.98
2023-06-14T21:54:31.896Z,52.26
2023-06-14T21:56:58.874Z,52.67
2023-06-14T21:59:25.518Z,52.55
2023-06-14T22:01:52.896Z,53.08
2023-06-14T22:04:19.429Z,53.20
2023-06-14T22:06:46.704Z,53.73
2023-06-14T22:09:14.944Z,53.57
2023-06-14T22:11:42.764Z,54.40
2023-06-14T22:14:13.382Z,54.33
2023-06-14T22:16:40.313Z,54.67
2023-06-14T22:19:07.821Z,54.93
2023-06-14T22:21:35.312Z,55.15
2023-06-14T22:24:07.447Z,55.55
2023-06-14T22:26:57.492Z,55.82
2023-06-14T22:29:26.154Z,56.21
2023-06-14T22:31:53.559Z,56.29
2023-06-14T22:34:20.589Z,56.82
2023-06-14T22:36:49.238Z,57.04
2023-06-14T22:39:16.278Z,57.23
2023-06-14T22:41:43.427Z,57.58
2023-06-14T22:44:10.246Z,57.87
2023-06-14T22:46:37.279Z,57.83
2023-06-14T22:49:04.749Z,58.55
2023-06-14T22:51:31.523Z,58.41
2023-06-14T22:53:59.245Z,58.83
2023-06-14T22:56:26.447Z,59.05
2023-06-14T22:58:55.067Z,58.89
2023-06-14T23:01:28.422Z,58.92
2023-06-14T23:03:56.973Z,59.18
2023-06-14T23:06:26.803Z,59.85
2023-06-14T23:08:55.457Z,60.06
2023-06-14T23:11:23.095Z,60.52
2023-06-14T23:13:51.797Z,61.18
2023-06-14T23:16:19.143Z,61.43
2023-06-14T23:18:49.520Z,62.00
2023-06-14T23:21:19.689Z,62.24
2023-06-14T23:23:51.716Z,62.43
2023-06-14T23:26:18.904Z,63.12
2023-06-14T23:28:48.701Z,63.25
2023-06-14T23:31:15.848Z,63.59
2023-06-14T23:33:42.850Z,63.64
2023-06-14T23:36:09.941Z,63.98
2023-06-14T23:38:43.656Z,64.26
2023-06-14T23:41:13.242Z,64.65
2023-06-14T23:43:43.557Z,64.63
2023-06-14T23:46:13.153Z,65.04
2023-06-14T23:48:40.454Z,65.12
2023-06-14T23:51:07.160Z,65.37
2023-06-14T23:53:34.953Z,65.85
2023-06-14T23:56:03.523Z,66.07
2023-06-14T23:58:30.252Z,66.64
